createdAt,value
2023-04-14T00:00:59.839Z,8.50
2023-04-14T00:06:07.506Z,8.50
2023-04-14T00:11:17.061Z,8.40
2023-04-14T00:16:41.189Z,8.30
2023-04-14T00:21:49.369Z,8.30
2023-04-14T00:27:28.970Z,8.20
2023-04-14T00:32:41.583Z,8.00
2023-04-14T00:37:48.385Z,8.10
2023-04-14T00:43:07.604Z,8.00
2023-04-14T00:48:23.115Z,8.00
2023-04-14T00:53:28.929Z,7.80
2023-04-14T00:58:33.894Z,7.80
2023-04-14T01:03:42.494Z,7.70
2023-04-14T01:08:53.717Z,7.00
2023-04-14T01:14:31.100Z,7.90
2023-04-14T01:20:11.404Z,8.10
2023-04-14T01:25:49.976Z,8.00
2023-04-14T01:31:42.832Z,7.70
2023-04-14T01:37:32.469Z,7.50
2023-04-14T01:42:41.986Z,7.50
2023-04-14T01:47:55.277Z,7.50
2023-04-14T01:53:09.968Z,7.60
2023-04-14T01:58:21.278Z,7.60
2023-04-14T02:03:53.098Z,7.50
2023-04-14T02:09:11.139Z,7.50
2023-04-14T02:19:48.817Z,7.70
2023-04-14T02:24:59.212Z,7.80
2023-04-14T02:30:45.930Z,7.70
2023-04-14T02:36:23.859Z,9.20
2023-04-14T02:41:42.514Z,7.90
2023-04-14T02:46:56.980Z,7.70
2023-04-14T02:52:07.204Z,7.80
2023-04-14T02:57:10.069Z,7.10
2023-04-14T03:02:19.242Z,7.70
2023-04-14T03:07:32.689Z,7.80
2023-04-14T03:12:46.619Z,7.80
2023-04-14T03:17:58.995Z,7.90
2023-04-14T03:23:11.658Z,7.70
2023-04-14T03:28:37.832Z,7.70
2023-04-14T03:33:58.390Z,7.70
2023-04-14T03:39:16.096Z,7.70
2023-04-14T03:44:33.349Z,7.80
2023-04-14T03:49:46.759Z,7.90
2023-04-14T03:54:55.141Z,7.90
2023-04-14T04:00:13.411Z,7.80
2023-04-14T04:05:22.824Z,8.00
2023-04-14T04:10:43.794Z,8.00
2023-04-14T04:16:09.870Z,8.50
2023-04-14T04:21:17.187Z,8.50
2023-04-14T04:26:26.140Z,8.60
2023-04-14T04:31:37.718Z,8.80
2023-04-14T04:36:49.955Z,9.00
2023-04-14T04:42:09.211Z,9.00
2023-04-14T04:47:16.970Z,9.30
2023-04-14T04:52:42.929Z,9.50
2023-04-14T04:57:52.693Z,9.60
2023-04-14T05:03:01.675Z,10.20
2023-04-14T05:08:15.412Z,10.20
2023-04-14T05:13:25.426Z,10.10
2023-04-14T05:24:03.758Z,11.10
2023-04-14T05:29:17.020Z,10.60
2023-04-14T05:34:21.155Z,10.30
2023-04-14T05:39:25.866Z,10.40
2023-04-14T05:45:02.799Z,10.60
2023-04-14T05:50:22.452Z,10.80
2023-04-14T05:55:25.100Z,10.80
2023-04-14T06:00:28.275Z,11.00
2023-04-14T06:05:43.386Z,11.10
2023-04-14T06:11:03.792Z,11.10
2023-04-14T06:22:01.745Z,11.80
2023-04-14T06:27:23.521Z,12.20
2023-04-14T06:32:43.372Z,12.30
2023-04-14T06:38:16.862Z,12.50
2023-04-14T06:43:31.708Z,12.60
2023-04-14T06:48:43.635Z,14.10
2023-04-14T06:54:18.286Z,12.90
2023-04-14T06:59:52.390Z,13.10
2023-04-14T07:04:58.458Z,13.20
2023-04-14T07:10:08.272Z,13.30
2023-04-14T07:15:39.274Z,13.40
2023-04-14T07:21:09.405Z,13.60
2023-04-14T07:27:49.921Z,13.60
2023-04-14T07:33:33.139Z,13.70
2023-04-14T07:44:45.394Z,13.80
2023-04-14T07:50:19.834Z,14.40
2023-04-14T07:55:56.705Z,14.20
2023-04-14T08:01:27.888Z,14.00
2023-04-14T08:06:58.292Z,14.10
2023-04-14T08:12:35.149Z,14.30
2023-04-14T08:18:11.802Z,14.90
2023-04-14T08:23:40.885Z,15.30
2023-04-14T08:29:01.759Z,15.60
2023-04-14T08:34:06.739Z,15.80
2023-04-14T08:39:33.056Z,16.10
2023-04-14T08:44:52.826Z,16.00
2023-04-14T08:50:08.827Z,16.00
2023-04-14T08:55:22.413Z,16.10
2023-04-14T09:00:32.110Z,16.30
2023-04-14T09:05:43.355Z,16.40
2023-04-14T09:10:47.087Z,16.50
2023-04-14T09:16:08.266Z,16.50
2023-04-14T09:21:49.742Z,16.60
2023-04-14T09:26:47.007Z,16.70
2023-04-14T09:31:50.629Z,16.80
2023-04-14T09:37:13.304Z,16.80
2023-04-14T09:42:47.279Z,16.80
2023-04-14T09:48:07.152Z,16.70
2023-04-14T09:53:13.418Z,16.80
2023-04-14T09:58:25.341Z,16.90
2023-04-14T10:03:38.322Z,16.70
2023-04-14T10:08:48.784Z,16.50
2023-04-14T10:13:57.261Z,17.00
2023-04-14T10:19:00.843Z,17.60
2023-04-14T10:24:07.307Z,18.10
2023-04-14T10:29:18.364Z,18.30
2023-04-14T10:34:42.729Z,18.00
2023-04-14T10:39:57.246Z,17.90
2023-04-14T10:45:08.551Z,18.20
2023-04-14T10:50:22.271Z,19.20
2023-04-14T10:55:28.213Z,18.80
2023-04-14T11:00:47.054Z,18.60
2023-04-14T11:05:55.823Z,18.90
2023-04-14T11:11:05.798Z,19.00
2023-04-14T11:16:09.555Z,18.30
2023-04-14T11:21:16.263Z,18.20
2023-04-14T11:26:26.211Z,18.20
2023-04-14T11:31:32.268Z,18.30
2023-04-14T11:36:39.334Z,18.40
2023-04-14T11:41:56.169Z,18.20
2023-04-14T11:47:01.950Z,17.60
2023-04-14T11:52:09.369Z,17.70
2023-04-14T11:57:15.140Z,15.80
2023-04-14T12:02:22.115Z,17.50
2023-04-14T12:07:29.946Z,17.30
2023-04-14T12:12:33.744Z,17.00
2023-04-14T12:17:37.359Z,17.00
2023-04-14T12:22:41.799Z,17.00
2023-04-14T12:27:51.879Z,17.50
2023-04-14T12:32:56.889Z,18.10
2023-04-14T12:38:00.746Z,18.10
2023-04-14T12:43:03.390Z,18.10
2023-04-14T12:48:13.079Z,17.70
2023-04-14T12:53:26.810Z,17.60
2023-04-14T12:58:31.008Z,18.00
2023-04-14T13:04:05.637Z,18.20
2023-04-14T13:09:13.808Z,17.90
2023-04-14T13:14:16.682Z,17.60
2023-04-14T13:19:19.176Z,17.50
2023-04-14T13:24:22.796Z,17.40
2023-04-14T13:29:35.192Z,17.60
2023-04-14T13:34:39.364Z,17.70
2023-04-14T13:39:41.953Z,17.80
2023-04-14T13:44:44.992Z,17.70
2023-04-14T13:49:48.463Z,17.50
2023-04-14T13:54:51.484Z,17.30
2023-04-14T13:59:54.858Z,17.20
2023-04-14T14:04:59.883Z,17.20
2023-04-14T14:10:04.316Z,17.10
2023-04-14T14:15:15.262Z,17.00
2023-04-14T14:20:21.435Z,16.90
2023-04-14T14:25:25.189Z,16.90
2023-04-14T14:30:27.875Z,16.90
2023-04-14T14:35:31.198Z,16.60
2023-04-14T14:40:36.042Z,16.60
2023-04-14T14:45:46.747Z,16.40
2023-04-14T14:50:54.394Z,16.40
2023-04-14T14:56:01.743Z,16.50
2023-04-14T15:01:06.079Z,16.70
2023-04-14T15:06:10.947Z,16.60
2023-04-14T15:11:13.714Z,16.70
2023-04-14T15:16:16.844Z,16.60
2023-04-14T15:21:19.747Z,16.50
2023-04-14T15:26:22.575Z,16.40
2023-04-14T15:31:25.626Z,16.30
2023-04-14T15:36:29.133Z,16.20
2023-04-14T15:41:32.090Z,16.10
2023-04-14T15:46:34.574Z,16.00
2023-04-14T15:51:41.601Z,15.80
2023-04-14T15:56:47.465Z,15.80
2023-04-14T16:01:51.528Z,15.80
2023-04-14T16:06:55.312Z,15.70
2023-04-14T16:11:58.546Z,15.70
2023-04-14T16:17:01.364Z,15.50
2023-04-14T16:22:08.931Z,15.40
2023-04-14T16:27:12.460Z,15.30
2023-04-14T16:32:15.016Z,15.20
2023-04-14T16:37:17.616Z,15.20
2023-04-14T16:42:28.160Z,14.90
2023-04-14T16:47:30.986Z,14.90
2023-04-14T16:52:35.370Z,14.80
2023-04-14T16:57:39.457Z,14.70
2023-04-14T17:02:51.873Z,14.60
2023-04-14T17:07:54.805Z,14.50
2023-04-14T17:12:57.632Z,14.30
2023-04-14T17:18:00.627Z,14.20
2023-04-14T17:23:03.954Z,14.10
2023-04-14T17:33:14.027Z,14.20
2023-04-14T17:38:28.089Z,14.00
2023-04-14T17:43:31.223Z,13.80
2023-04-14T17:48:34.803Z,13.60
2023-04-14T17:53:37.978Z,13.50
2023-04-14T17:58:42.432Z,13.40
2023-04-14T18:03:45.919Z,13.10
2023-04-14T18:08:48.981Z,13.10
2023-04-14T18:13:53.451Z,13.20
2023-04-14T18:19:01.336Z,13.20
2023-04-14T18:29:18.617Z,13.10
2023-04-14T18:34:40.817Z,12.90
2023-04-14T18:39:46.027Z,16.20
2023-04-14T18:49:59.422Z,12.70
2023-04-14T18:55:05.555Z,12.70
2023-04-14T19:00:25.655Z,12.50
2023-04-14T19:06:08.951Z,12.50
2023-04-14T19:11:32.283Z,12.30
2023-04-14T19:16:36.181Z,12.40
2023-04-14T19:21:40.822Z,12.30
2023-04-14T19:27:10.855Z,12.20
2023-04-14T19:32:16.332Z,12.00
2023-04-14T19:37:45.952Z,11.80
2023-04-14T19:42:58.669Z,11.60
2023-04-14T19:48:22.552Z,11.50
2023-04-14T19:58:44.453Z,11.50
2023-04-14T20:04:04.940Z,11.50
2023-04-14T20:09:12.679Z,10.60
2023-04-14T20:19:19.540Z,11.30
2023-04-14T20:25:11.957Z,11.20
2023-04-14T20:30:16.135Z,11.10
2023-04-14T20:35:19.899Z,11.10
2023-04-14T20:40:26.521Z,10.90
2023-04-14T20:45:35.504Z,10.90
2023-04-14T20:50:54.928Z,10.70
2023-04-14T20:55:58.213Z,10.80
2023-04-14T21:01:03.010Z,10.90
2023-04-14T21:06:19.874Z,10.80
2023-04-14T21:11:25.331Z,10.80
2023-04-14T21:16:50.407Z,10.80
2023-04-14T21:22:02.525Z,10.70
2023-04-14T21:27:08.758Z,10.80
2023-04-14T21:37:20.344Z,10.80
2023-04-14T21:42:32.821Z,10.90
2023-04-14T21:47:40.247Z,11.00
2023-04-14T21:52:43.832Z,10.90
2023-04-14T21:57:51.131Z,10.90
2023-04-14T22:02:58.343Z,10.90
2023-04-14T22:08:01.964Z,11.00
2023-04-14T22:13:05.374Z,11.00
2023-04-14T22:18:11.943Z,10.90
2023-04-14T22:23:25.925Z,10.90
2023-04-14T22:28:31.826Z,10.80
2023-04-14T22:33:37.115Z,10.80
2023-04-14T22:38:42.853Z,10.80
2023-04-14T22:43:45.810Z,10.80
2023-04-14T22:48:48.382Z,10.60
2023-04-14T23:09:02.990Z,10.60
2023-04-14T23:14:06.150Z,10.70
2023-04-14T23:19:16.581Z,10.60
2023-04-14T23:24:19.770Z,10.60
2023-04-14T23:29:22.931Z,10.60
2023-04-14T23:34:25.704Z,10.50
2023-04-14T23:39:30.809Z,10.50
2023-04-14T23:44:39.640Z,10.50
2023-04-14T23:49:46.666Z,10.50
